Cobb, California
Current Conditions -  °F | °C
As of 4:53 PM on Sunday 23 Nov 2014 (Local Time) from KSTS Reporting Station
Scattered Clouds Scattered Clouds  
Wind Chill: 59°   Ceiling: Unl
Heat Index: 59°   Visibility: 10mi
Dew Point: 46°   Wind: 5mph
Humidity: 62%   Direction: 180°S
Pressure: 30.26"   Gusts: NA
Location:  38.84°N, 122.73°W
Report Text: KSTS 240053Z 18004KT 10SM SCT120 15/08 A3026 RMK AO2 SLP240 T01500078
Loading
Personal Weather Stations






























Interactive Weather Map New forecast layout! Learn more

10-Day Weather Forecast

Advertisements
Track Severe Weather on mobile